createdAt,value
2018-09-13T00:00:24.592Z,13.87
2018-09-13T00:02:55.243Z,12.23
2018-09-13T00:05:25.943Z,12.93
2018-09-13T00:07:56.807Z,12.90
2018-09-13T00:10:27.532Z,12.40
2018-09-13T00:12:58.437Z,13.07
2018-09-13T00:15:29.240Z,11.67
2018-09-13T00:18:00.078Z,11.63
2018-09-13T00:20:30.925Z,11.40
2018-09-13T00:23:01.644Z,11.23
2018-09-13T00:25:32.588Z,11.53
2018-09-13T00:28:03.331Z,11.30
2018-09-13T00:30:34.008Z,11.67
2018-09-13T00:33:04.721Z,12.20
2018-09-13T00:35:35.481Z,12.67
2018-09-13T00:38:06.144Z,12.93
2018-09-13T00:40:36.988Z,12.60
2018-09-13T00:43:07.811Z,13.57
2018-09-13T00:45:38.601Z,12.37
2018-09-13T00:48:09.358Z,14.80
2018-09-13T00:50:40.162Z,12.73
2018-09-13T00:53:16.591Z,11.43
2018-09-13T00:55:47.450Z,14.53
2018-09-13T00:58:20.004Z,12.10
2018-09-13T01:00:51.012Z,12.80
2018-09-13T01:03:21.760Z,13.00
2018-09-13T01:05:52.678Z,12.93
2018-09-13T01:08:24.481Z,12.63
2018-09-13T01:10:55.339Z,13.57
2018-09-13T01:13:26.003Z,13.17
2018-09-13T01:15:56.703Z,13.10
2018-09-13T01:18:27.385Z,13.63
2018-09-13T01:20:58.196Z,14.70
2018-09-13T01:23:28.948Z,13.70
2018-09-13T01:26:00.173Z,14.50
2018-09-13T01:28:31.736Z,12.70
2018-09-13T01:31:03.805Z,13.27
2018-09-13T01:33:34.653Z,12.47
2018-09-13T01:36:05.408Z,13.73
2018-09-13T01:38:36.147Z,10.97
2018-09-13T01:41:07.028Z,11.70
2018-09-13T01:43:37.702Z,11.60
2018-09-13T01:46:08.528Z,12.77
2018-09-13T01:48:39.213Z,12.53
2018-09-13T01:51:10.732Z,12.47
2018-09-13T01:53:41.742Z,11.43
2018-09-13T01:56:12.559Z,11.93
2018-09-13T01:58:43.628Z,11.73
2018-09-13T02:01:14.403Z,12.47
2018-09-13T02:03:46.945Z,12.03
2018-09-13T02:06:20.422Z,13.43
2018-09-13T02:11:29.529Z,13.10
2018-09-13T02:14:00.345Z,13.30
2018-09-13T02:16:31.244Z,12.43
2018-09-13T02:19:02.028Z,12.83
2018-09-13T02:21:35.326Z,14.17
2018-09-13T02:24:06.140Z,12.70
2018-09-13T02:26:36.991Z,11.47
2018-09-13T02:29:08.012Z,10.87
2018-09-13T02:31:38.826Z,11.93
2018-09-13T02:34:09.574Z,12.30
2018-09-13T02:36:40.670Z,12.47
2018-09-13T02:39:11.827Z,13.57
2018-09-13T02:41:42.800Z,11.43
2018-09-13T02:44:13.512Z,12.40
2018-09-13T02:46:45.497Z,11.27
2018-09-13T02:49:16.343Z,10.93
2018-09-13T02:51:47.007Z,11.30
2018-09-13T02:54:17.843Z,10.73
2018-09-13T02:56:48.649Z,11.50
2018-09-13T02:59:19.436Z,11.20
2018-09-13T03:01:50.282Z,11.33
2018-09-13T03:04:21.084Z,11.53
2018-09-13T03:06:51.869Z,10.27
2018-09-13T03:09:22.686Z,10.40
2018-09-13T03:11:53.618Z,11.50
2018-09-13T03:14:24.379Z,12.50
2018-09-13T03:16:55.124Z,11.53
2018-09-13T03:19:25.908Z,12.47
2018-09-13T03:21:56.765Z,10.53
2018-09-13T03:24:27.668Z,9.50
2018-09-13T03:26:58.298Z,9.83
2018-09-13T03:29:29.061Z,10.93
2018-09-13T03:31:59.808Z,10.90
2018-09-13T03:34:30.620Z,10.77
2018-09-13T03:37:01.342Z,12.30
2018-09-13T03:39:32.083Z,14.63
2018-09-13T03:42:03.022Z,13.50
2018-09-13T03:44:33.717Z,13.43
2018-09-13T03:47:04.676Z,14.10
2018-09-13T03:49:35.298Z,14.43
2018-09-13T03:52:06.048Z,14.43
2018-09-13T03:54:36.913Z,15.80
2018-09-13T03:57:07.757Z,14.57
2018-09-13T03:59:38.598Z,15.57
2018-09-13T04:02:09.479Z,16.03
2018-09-13T04:04:40.228Z,14.13
2018-09-13T04:07:11.063Z,14.77
2018-09-13T04:09:41.810Z,15.47
2018-09-13T04:12:12.656Z,13.70
2018-09-13T04:14:43.365Z,15.27
2018-09-13T04:17:14.125Z,16.27
2018-09-13T04:19:46.038Z,17.90
2018-09-13T04:22:17.496Z,17.60
2018-09-13T04:24:48.172Z,17.43
2018-09-13T04:27:19.013Z,17.50
2018-09-13T04:29:49.737Z,19.13
2018-09-13T04:32:28.048Z,14.87
2018-09-13T04:34:58.829Z,16.80
2018-09-13T04:37:29.678Z,18.27
2018-09-13T04:40:00.403Z,21.03
2018-09-13T04:42:31.182Z,18.53
2018-09-13T04:45:01.928Z,19.93
2018-09-13T04:47:32.780Z,18.60
2018-09-13T04:50:03.794Z,19.47
2018-09-13T04:52:34.722Z,19.50
2018-09-13T04:55:05.566Z,22.10
2018-09-13T04:57:36.384Z,21.60
2018-09-13T05:00:07.348Z,18.50
2018-09-13T05:02:38.412Z,17.73
2018-09-13T05:05:09.549Z,16.00
2018-09-13T05:07:40.397Z,17.23
2018-09-13T05:10:11.247Z,16.90
2018-09-13T05:12:43.139Z,17.13
2018-09-13T05:15:14.929Z,16.20
2018-09-13T05:17:48.876Z,15.20
2018-09-13T05:20:22.979Z,23.70
2018-09-13T05:22:54.561Z,20.60
2018-09-13T05:25:30.646Z,14.73
2018-09-13T05:28:02.716Z,16.03
2018-09-13T05:30:34.646Z,13.27
2018-09-13T05:33:07.112Z,12.70
2018-09-13T05:35:39.173Z,14.10
2018-09-13T05:38:10.005Z,15.40
2018-09-13T05:40:47.376Z,16.30
2018-09-13T05:43:20.962Z,13.20
2018-09-13T05:45:56.504Z,14.73
2018-09-13T05:48:27.253Z,12.30
2018-09-13T05:50:58.747Z,12.23
2018-09-13T05:53:29.646Z,11.73
2018-09-13T05:56:01.711Z,14.37
2018-09-13T05:58:34.993Z,12.03
2018-09-13T06:01:06.397Z,13.70
2018-09-13T06:03:37.470Z,13.93
2018-09-13T06:06:09.224Z,15.93
2018-09-13T06:08:41.263Z,13.13
2018-09-13T06:11:12.037Z,11.60
2018-09-13T06:13:46.419Z,11.83
2018-09-13T06:16:17.148Z,11.93
2018-09-13T06:18:48.090Z,12.57
2018-09-13T06:21:18.808Z,11.47
2018-09-13T06:23:49.517Z,12.83
2018-09-13T06:26:20.345Z,10.53
2018-09-13T06:28:51.067Z,11.57
2018-09-13T06:31:22.009Z,10.70
2018-09-13T06:33:52.806Z,10.03
2018-09-13T06:36:23.615Z,9.30
2018-09-13T06:38:54.641Z,10.90
2018-09-13T06:41:29.034Z,8.67
2018-09-13T06:44:07.329Z,8.87
2018-09-13T06:46:38.135Z,9.47
2018-09-13T06:49:09.161Z,9.80
2018-09-13T06:54:42.798Z,10.07
2018-09-13T06:57:13.583Z,8.90
2018-09-13T06:59:44.416Z,8.97
2018-09-13T07:02:16.132Z,10.00
2018-09-13T07:04:49.777Z,9.80
2018-09-13T07:07:20.994Z,10.80
2018-09-13T07:09:51.722Z,9.77
2018-09-13T07:12:24.481Z,8.57
2018-09-13T07:14:55.237Z,9.23
2018-09-13T07:17:26.093Z,11.93
2018-09-13T07:19:57.234Z,9.17
2018-09-13T07:22:30.930Z,9.63
2018-09-13T07:25:02.896Z,10.63
2018-09-13T07:27:34.633Z,10.13
2018-09-13T07:30:06.013Z,8.27
2018-09-13T07:32:44.937Z,8.60
2018-09-13T07:35:15.865Z,8.40
2018-09-13T07:37:47.434Z,9.37
2018-09-13T07:40:18.571Z,10.47
2018-09-13T07:42:49.483Z,11.63
2018-09-13T07:45:20.261Z,13.47
2018-09-13T07:47:51.987Z,13.60
2018-09-13T07:50:23.174Z,13.53
2018-09-13T07:52:54.183Z,13.27
2018-09-13T07:55:25.974Z,11.27
2018-09-13T07:57:56.719Z,12.23
2018-09-13T08:00:27.534Z,14.10
2018-09-13T08:02:58.415Z,12.37
2018-09-13T08:05:29.503Z,12.93
2018-09-13T08:08:00.228Z,12.47
2018-09-13T08:10:31.016Z,13.27
2018-09-13T08:13:01.923Z,14.27
2018-09-13T08:15:32.678Z,16.60
2018-09-13T08:18:03.600Z,16.07
2018-09-13T08:20:34.392Z,14.70
2018-09-13T08:23:05.544Z,16.47
2018-09-13T08:25:54.902Z,14.10
2018-09-13T08:28:50.677Z,12.83
2018-09-13T08:31:52.311Z,14.37
2018-09-13T08:37:49.484Z,13.67
2018-09-13T08:40:36.509Z,16.20
2018-09-13T08:43:11.820Z,16.60
2018-09-13T08:45:43.199Z,16.77
2018-09-13T08:48:14.033Z,17.00
2018-09-13T08:50:45.140Z,18.50
2018-09-13T08:53:15.966Z,18.60
2018-09-13T08:55:47.930Z,17.70
2018-09-13T08:58:19.619Z,19.03
2018-09-13T09:00:51.953Z,19.93
2018-09-13T09:03:24.250Z,20.70
2018-09-13T09:05:55.759Z,22.10
2018-09-13T09:08:27.923Z,19.63
2018-09-13T09:11:02.025Z,21.17
2018-09-13T09:13:32.913Z,19.83
2018-09-13T09:16:05.288Z,21.07
2018-09-13T09:18:36.084Z,18.77
2018-09-13T09:21:10.268Z,18.23
2018-09-13T09:23:49.644Z,17.87
2018-09-13T09:26:22.335Z,17.67
2018-09-13T09:28:53.243Z,17.23
2018-09-13T09:31:31.283Z,13.80
2018-09-13T09:34:02.030Z,15.60
2018-09-13T09:36:32.880Z,14.83
2018-09-13T09:39:05.929Z,15.30
2018-09-13T09:41:36.862Z,14.90
2018-09-13T09:44:07.969Z,14.67
2018-09-13T09:46:39.157Z,15.33
2018-09-13T09:49:09.936Z,15.67
2018-09-13T09:51:48.741Z,14.70
2018-09-13T09:54:20.789Z,16.33
2018-09-13T09:56:51.603Z,16.30
2018-09-13T09:59:22.408Z,17.13
2018-09-13T10:01:59.299Z,16.20
2018-09-13T10:04:30.554Z,17.17
2018-09-13T10:07:01.470Z,16.67
2018-09-13T10:09:32.242Z,17.67
2018-09-13T10:12:03.066Z,20.67
2018-09-13T10:14:33.855Z,19.03
2018-09-13T10:17:10.672Z,18.67
2018-09-13T10:19:46.891Z,17.90
2018-09-13T10:22:22.659Z,15.37
2018-09-13T10:24:58.533Z,14.57
2018-09-13T10:27:34.427Z,15.50
2018-09-13T10:30:11.354Z,15.30
2018-09-13T10:32:47.268Z,14.17
2018-09-13T10:35:23.325Z,12.97
2018-09-13T10:37:59.303Z,12.63
2018-09-13T10:40:35.104Z,11.80
2018-09-13T10:43:10.949Z,13.63
2018-09-13T10:45:46.906Z,12.00
2018-09-13T10:48:22.820Z,12.13
2018-09-13T10:50:58.888Z,9.10
2018-09-13T10:53:29.765Z,7.87
2018-09-13T10:56:00.508Z,8.63
2018-09-13T10:58:31.481Z,7.20
2018-09-13T11:01:02.285Z,6.47
2018-09-13T11:03:33.034Z,6.33
2018-09-13T11:06:03.861Z,6.40
2018-09-13T11:08:34.715Z,7.03
2018-09-13T11:11:05.632Z,8.00
2018-09-13T11:13:43.256Z,6.40
2018-09-13T11:16:14.097Z,7.90
2018-09-13T11:18:44.851Z,7.83
2018-09-13T11:21:15.661Z,7.73
2018-09-13T11:23:47.805Z,9.63
2018-09-13T11:26:18.625Z,8.17
2018-09-13T11:28:49.444Z,8.23
2018-09-13T11:31:20.245Z,7.90
2018-09-13T11:33:51.025Z,7.03
2018-09-13T11:36:21.815Z,5.97
2018-09-13T11:38:54.657Z,8.33
2018-09-13T11:41:25.420Z,6.40
2018-09-13T11:43:58.017Z,6.10
2018-09-13T11:46:42.402Z,5.00
2018-09-13T11:49:14.395Z,5.93
2018-09-13T11:51:46.228Z,4.80
2018-09-13T11:54:16.945Z,4.97
2018-09-13T11:56:47.649Z,6.17
2018-09-13T11:59:18.353Z,5.03
2018-09-13T12:01:49.124Z,5.40
2018-09-13T12:04:19.917Z,5.23
2018-09-13T12:06:50.682Z,5.50
2018-09-13T12:09:21.650Z,4.90
2018-09-13T12:11:52.837Z,5.23
2018-09-13T12:14:23.595Z,4.87
2018-09-13T12:16:54.401Z,7.13
2018-09-13T12:19:25.229Z,7.47
2018-09-13T12:21:56.178Z,4.57
2018-09-13T12:24:26.890Z,4.33
2018-09-13T12:26:57.781Z,4.20
2018-09-13T12:29:28.917Z,4.67
2018-09-13T12:31:59.856Z,4.73
2018-09-13T12:34:30.643Z,4.23
2018-09-13T12:37:01.448Z,6.97
2018-09-13T12:39:33.265Z,4.40
2018-09-13T12:42:04.083Z,4.80
2018-09-13T12:44:35.027Z,4.60
2018-09-13T12:47:05.877Z,5.93
2018-09-13T12:49:37.061Z,4.07
2018-09-13T12:52:07.895Z,4.30
2018-09-13T12:54:38.667Z,5.50
2018-09-13T12:57:09.592Z,6.67
2018-09-13T12:59:40.860Z,3.80
2018-09-13T13:02:11.700Z,4.30
2018-09-13T13:04:42.500Z,3.77
2018-09-13T13:07:13.170Z,4.20
2018-09-13T13:09:43.935Z,3.90
2018-09-13T13:12:14.891Z,4.67
2018-09-13T13:14:45.830Z,5.80
2018-09-13T13:17:16.590Z,3.30
2018-09-13T13:19:47.519Z,3.70
2018-09-13T13:22:18.351Z,5.03
2018-09-13T13:24:49.080Z,3.10
2018-09-13T13:27:19.859Z,3.40
2018-09-13T13:29:50.613Z,4.23
2018-09-13T13:32:21.388Z,4.00
2018-09-13T13:34:52.100Z,4.33
2018-09-13T13:37:22.793Z,3.27
2018-09-13T13:39:53.564Z,4.30
2018-09-13T13:42:24.270Z,3.60
2018-09-13T13:44:54.967Z,3.53
2018-09-13T13:47:25.686Z,3.40
2018-09-13T13:49:56.405Z,3.97
2018-09-13T13:52:27.094Z,3.83
2018-09-13T13:54:57.960Z,5.37
2018-09-13T13:57:28.708Z,3.73
2018-09-13T13:59:59.487Z,4.53
2018-09-13T14:02:30.231Z,3.93
2018-09-13T14:05:01.238Z,4.20
2018-09-13T14:07:32.013Z,5.00
2018-09-13T14:10:02.781Z,4.50
2018-09-13T14:12:33.523Z,5.37
2018-09-13T14:15:04.274Z,4.50
2018-09-13T14:17:35.080Z,4.83
2018-09-13T14:20:05.984Z,4.20
2018-09-13T14:22:36.719Z,6.23
2018-09-13T14:25:08.280Z,5.07
2018-09-13T14:27:39.057Z,6.77
2018-09-13T14:30:10.361Z,5.53
2018-09-13T14:35:42.617Z,4.70
2018-09-13T14:40:58.991Z,4.20
2018-09-13T14:43:29.831Z,3.90
2018-09-13T14:46:00.877Z,5.07
2018-09-13T14:48:31.696Z,4.23
2018-09-13T14:51:03.055Z,6.40
2018-09-13T14:53:34.352Z,4.50
2018-09-13T14:56:05.095Z,4.27
2018-09-13T14:58:35.862Z,4.43
2018-09-13T15:01:06.830Z,3.83
2018-09-13T15:03:37.553Z,5.93
2018-09-13T15:06:09.037Z,4.87
2018-09-13T15:08:39.796Z,5.00
2018-09-13T15:11:10.543Z,6.40
2018-09-13T15:13:41.262Z,3.70
2018-09-13T15:16:11.976Z,4.00
2018-09-13T15:18:43.327Z,4.70
2018-09-13T15:21:14.103Z,3.00
2018-09-13T15:23:44.893Z,3.40
2018-09-13T15:26:15.712Z,4.13
2018-09-13T15:28:46.489Z,5.50
2018-09-13T15:31:17.328Z,3.43
2018-09-13T15:33:48.084Z,3.40
2018-09-13T15:36:18.813Z,3.27
2018-09-13T15:38:49.510Z,2.93
2018-09-13T15:41:20.217Z,2.83
2018-09-13T15:43:51.416Z,3.90
2018-09-13T15:46:22.164Z,4.60
2018-09-13T15:48:52.910Z,2.80
2018-09-13T15:51:23.662Z,2.53
2018-09-13T15:53:54.406Z,3.57
2018-09-13T15:56:25.184Z,4.83
2018-09-13T15:58:56.001Z,2.90
2018-09-13T16:01:26.734Z,3.33
2018-09-13T16:03:57.446Z,2.60
2018-09-13T16:06:28.264Z,5.10
2018-09-13T16:08:59.014Z,3.23
2018-09-13T16:11:29.745Z,3.73
2018-09-13T16:14:00.508Z,3.33
2018-09-13T16:16:32.820Z,3.60
2018-09-13T16:19:05.394Z,2.83
2018-09-13T16:21:36.427Z,3.70
2018-09-13T16:24:07.377Z,3.77
2018-09-13T16:26:38.786Z,2.77
2018-09-13T16:29:09.641Z,2.57
2018-09-13T16:31:40.453Z,3.03
2018-09-13T16:34:11.317Z,4.87
2018-09-13T16:36:47.303Z,3.30
2018-09-13T16:39:27.037Z,3.47
2018-09-13T16:42:03.225Z,3.33
2018-09-13T16:44:40.792Z,3.40
2018-09-13T16:47:17.277Z,3.87
2018-09-13T16:49:48.144Z,6.43
2018-09-13T16:52:19.806Z,2.70
2018-09-13T16:54:50.725Z,3.30
2018-09-13T16:57:21.593Z,5.70
2018-09-13T16:59:52.632Z,6.20
2018-09-13T17:02:23.655Z,3.97
2018-09-13T17:04:54.477Z,4.00
2018-09-13T17:07:25.390Z,4.67
2018-09-13T17:09:56.120Z,2.60
2018-09-13T17:12:26.878Z,4.00
2018-09-13T17:14:57.849Z,3.93
2018-09-13T17:17:28.756Z,3.33
2018-09-13T17:19:59.646Z,2.03
2018-09-13T17:22:30.461Z,5.03
2018-09-13T17:25:01.196Z,4.03
2018-09-13T17:27:31.992Z,3.57
2018-09-13T17:30:02.787Z,2.20
2018-09-13T17:32:33.647Z,2.83
2018-09-13T17:35:04.560Z,4.20
2018-09-13T17:37:35.254Z,2.90
2018-09-13T17:40:06.076Z,4.67
2018-09-13T17:42:36.792Z,2.93
2018-09-13T17:45:07.609Z,3.03
2018-09-13T17:47:38.417Z,4.43
2018-09-13T17:50:09.237Z,3.60
2018-09-13T17:52:39.897Z,4.23
2018-09-13T17:55:10.619Z,3.83
2018-09-13T17:57:41.412Z,2.90
2018-09-13T18:00:13.628Z,3.27
2018-09-13T18:02:44.407Z,4.83
2018-09-13T18:05:15.175Z,4.03
2018-09-13T18:07:45.979Z,3.07
2018-09-13T18:10:16.706Z,3.20
2018-09-13T18:12:47.530Z,3.23
2018-09-13T18:15:18.545Z,3.40
2018-09-13T18:17:49.627Z,3.10
2018-09-13T18:20:21.398Z,4.67
2018-09-13T18:22:52.276Z,4.37
2018-09-13T18:25:23.039Z,4.57
2018-09-13T18:27:53.836Z,4.60
2018-09-13T18:30:24.727Z,3.80
2018-09-13T18:32:55.487Z,4.47
2018-09-13T18:35:26.317Z,4.97
2018-09-13T18:37:57.098Z,3.10
2018-09-13T18:40:28.024Z,3.90
2018-09-13T18:42:58.821Z,6.47
2018-09-13T18:46:00.754Z,5.10
2018-09-13T18:48:31.564Z,4.70
2018-09-13T18:51:02.378Z,6.77
2018-09-13T18:53:33.189Z,6.77
2018-09-13T18:56:04.018Z,5.00
2018-09-13T18:58:35.023Z,5.00
2018-09-13T19:01:05.869Z,5.50
2018-09-13T19:03:36.576Z,5.93
2018-09-13T19:06:07.834Z,6.37
2018-09-13T19:08:38.580Z,6.23
2018-09-13T19:11:09.906Z,5.80
2018-09-13T19:13:40.650Z,6.40
2018-09-13T19:16:11.699Z,6.80
2018-09-13T19:18:42.432Z,6.17
2018-09-13T19:21:13.259Z,6.60
2018-09-13T19:23:43.960Z,7.80
2018-09-13T19:26:14.721Z,7.73
2018-09-13T19:28:45.421Z,5.60
2018-09-13T19:31:16.220Z,5.90
2018-09-13T19:33:47.213Z,5.90
2018-09-13T19:36:18.341Z,5.57
2018-09-13T19:38:49.540Z,5.80
2018-09-13T19:41:20.442Z,6.67
2018-09-13T19:43:52.127Z,7.27
2018-09-13T19:46:22.888Z,9.70
2018-09-13T19:48:53.644Z,6.93
2018-09-13T19:51:24.403Z,6.93
2018-09-13T19:53:56.241Z,6.37
2018-09-13T19:56:27.018Z,6.47
2018-09-13T19:58:58.226Z,6.73
2018-09-13T20:01:28.940Z,6.67
2018-09-13T20:03:59.847Z,6.87
2018-09-13T20:06:31.514Z,5.57
2018-09-13T20:09:09.798Z,6.00
2018-09-13T20:11:40.662Z,6.17
2018-09-13T20:14:11.499Z,6.97
2018-09-13T20:16:42.337Z,6.17
2018-09-13T20:19:13.176Z,10.73
2018-09-13T20:21:43.934Z,8.53
2018-09-13T20:24:14.768Z,8.20
2018-09-13T20:26:45.710Z,7.80
2018-09-13T20:29:16.588Z,8.43
2018-09-13T20:31:47.338Z,7.63
2018-09-13T20:34:18.287Z,9.00
2018-09-13T20:36:49.117Z,8.93
2018-09-13T20:39:19.943Z,13.73
2018-09-13T20:41:50.837Z,36.10
2018-09-13T20:44:21.513Z,34.10
2018-09-13T20:46:52.240Z,20.90
2018-09-13T20:49:22.994Z,14.10
2018-09-13T20:51:53.690Z,10.23
2018-09-13T20:54:24.444Z,9.83
2018-09-13T20:56:55.508Z,9.27
2018-09-13T20:59:26.309Z,10.67
2018-09-13T21:01:57.052Z,8.67
2018-09-13T21:04:27.827Z,10.30
2018-09-13T21:06:58.574Z,14.67
2018-09-13T21:09:29.305Z,11.10
2018-09-13T21:12:00.065Z,10.47
2018-09-13T21:14:30.838Z,11.00
2018-09-13T21:17:01.635Z,11.97
2018-09-13T21:19:33.097Z,11.47
2018-09-13T21:22:03.969Z,10.93
2018-09-13T21:24:34.832Z,11.43
2018-09-13T21:27:05.576Z,11.70
2018-09-13T21:29:36.490Z,13.77
2018-09-13T21:32:07.378Z,13.13
2018-09-13T21:34:38.140Z,15.67
2018-09-13T21:37:09.241Z,13.17
2018-09-13T21:39:40.003Z,14.43
2018-09-13T21:42:10.765Z,15.03
2018-09-13T21:44:41.575Z,12.60
2018-09-13T21:47:12.295Z,12.57
2018-09-13T21:49:43.081Z,14.50
2018-09-13T21:52:13.905Z,13.37
2018-09-13T21:54:44.670Z,15.00
2018-09-13T21:57:15.503Z,14.07
2018-09-13T21:59:46.300Z,13.40
2018-09-13T22:02:17.066Z,15.70
2018-09-13T22:04:48.043Z,13.50
2018-09-13T22:07:19.882Z,14.23
2018-09-13T22:09:50.712Z,13.47
2018-09-13T22:12:21.626Z,14.37
2018-09-13T22:14:52.422Z,14.77
2018-09-13T22:17:27.153Z,13.47
2018-09-13T22:19:57.825Z,17.67
2018-09-13T22:22:28.720Z,13.60
2018-09-13T22:24:59.481Z,14.13
2018-09-13T22:27:30.277Z,14.63
2018-09-13T22:30:00.997Z,14.43
2018-09-13T22:32:31.765Z,13.10
2018-09-13T22:35:02.489Z,11.97
2018-09-13T22:37:33.700Z,12.33
2018-09-13T22:40:04.590Z,13.20
2018-09-13T22:42:35.482Z,13.93
2018-09-13T22:45:06.292Z,13.27
2018-09-13T22:47:37.064Z,14.97
2018-09-13T22:50:07.938Z,14.27
2018-09-13T22:52:38.657Z,13.63
2018-09-13T22:55:09.438Z,12.23
2018-09-13T22:57:40.250Z,12.77
2018-09-13T23:00:11.016Z,12.83
2018-09-13T23:02:46.951Z,12.13
2018-09-13T23:05:18.940Z,11.80
2018-09-13T23:07:49.711Z,12.33
2018-09-13T23:10:20.478Z,11.57
2018-09-13T23:12:51.289Z,11.50
2018-09-13T23:15:22.075Z,11.20
2018-09-13T23:17:52.846Z,11.37
2018-09-13T23:20:23.763Z,10.83
2018-09-13T23:22:54.471Z,11.30
2018-09-13T23:25:25.306Z,11.70
2018-09-13T23:27:56.017Z,11.23
2018-09-13T23:30:27.278Z,12.13
2018-09-13T23:32:58.048Z,10.43
2018-09-13T23:35:28.896Z,10.70
2018-09-13T23:37:59.668Z,12.47
2018-09-13T23:40:30.524Z,10.53
2018-09-13T23:43:01.262Z,9.93
2018-09-13T23:45:32.044Z,10.80
2018-09-13T23:48:02.832Z,10.30
2018-09-13T23:50:33.594Z,11.63
2018-09-13T23:53:04.293Z,9.80
2018-09-13T23:55:35.073Z,10.70
2018-09-13T23:58:06.052Z,8.23
